createdAt,value
2018-12-16T00:02:24.265Z,31.60
2018-12-16T00:04:51.859Z,31.20
2018-12-16T00:07:19.453Z,33.93
2018-12-16T00:09:47.055Z,32.03
2018-12-16T00:12:14.676Z,31.20
2018-12-16T00:14:42.671Z,32.80
2018-12-16T00:17:10.215Z,32.33
2018-12-16T00:19:37.844Z,31.80
2018-12-16T00:22:05.405Z,34.10
2018-12-16T00:24:32.976Z,31.43
2018-12-16T00:27:08.149Z,32.60
2018-12-16T00:29:35.754Z,32.00
2018-12-16T00:32:03.359Z,31.73
2018-12-16T00:34:31.218Z,32.27
2018-12-16T00:36:58.891Z,41.83
2018-12-16T00:39:26.473Z,36.17
2018-12-16T00:41:54.127Z,32.33
2018-12-16T00:44:21.746Z,32.83
2018-12-16T00:46:49.377Z,32.63
2018-12-16T00:49:16.961Z,30.10
2018-12-16T00:51:44.630Z,32.80
2018-12-16T00:54:12.226Z,32.40
2018-12-16T00:56:39.757Z,32.87
2018-12-16T00:59:07.326Z,31.50
2018-12-16T01:01:34.904Z,33.07
2018-12-16T01:04:02.573Z,33.03
2018-12-16T01:06:30.211Z,32.83
2018-12-16T01:08:57.819Z,31.67
2018-12-16T01:11:25.756Z,32.90
2018-12-16T01:13:53.335Z,30.63
2018-12-16T01:16:20.927Z,32.60
2018-12-16T01:18:48.597Z,32.20
2018-12-16T01:21:16.134Z,31.77
2018-12-16T01:23:44.092Z,31.70
2018-12-16T01:26:11.660Z,31.50
2018-12-16T01:28:39.253Z,31.50
2018-12-16T01:31:06.827Z,31.10
2018-12-16T01:33:34.436Z,34.67
2018-12-16T01:36:01.974Z,33.00
2018-12-16T01:38:29.550Z,30.60
2018-12-16T01:40:57.107Z,29.90
2018-12-16T01:43:24.697Z,29.83
2018-12-16T01:45:52.269Z,30.40
2018-12-16T01:48:19.826Z,28.23
2018-12-16T01:50:47.444Z,30.67
2018-12-16T01:53:15.036Z,30.40
2018-12-16T01:55:42.641Z,30.20
2018-12-16T01:58:10.255Z,29.37
2018-12-16T02:00:37.827Z,30.53
2018-12-16T02:03:05.761Z,30.70
2018-12-16T02:05:33.320Z,29.70
2018-12-16T02:08:01.282Z,29.27
2018-12-16T02:10:28.957Z,28.07
2018-12-16T02:12:56.509Z,28.17
2018-12-16T02:15:24.104Z,28.50
2018-12-16T02:17:51.655Z,28.47
2018-12-16T02:20:19.607Z,28.97
2018-12-16T02:22:47.402Z,29.10
2018-12-16T02:25:14.994Z,27.43
2018-12-16T02:27:42.615Z,28.93
2018-12-16T02:30:12.217Z,27.50
2018-12-16T02:32:39.762Z,26.83
2018-12-16T02:35:07.389Z,25.97
2018-12-16T02:37:34.972Z,29.07
2018-12-16T02:40:02.534Z,25.77
2018-12-16T02:42:30.174Z,27.00
2018-12-16T02:44:57.776Z,25.17
2018-12-16T02:47:25.407Z,25.40
2018-12-16T02:49:53.011Z,22.97
2018-12-16T02:52:20.591Z,23.33
2018-12-16T02:54:48.185Z,22.97
2018-12-16T02:57:15.725Z,21.60
2018-12-16T02:59:43.301Z,23.70
2018-12-16T03:02:10.878Z,22.83
2018-12-16T03:04:38.509Z,23.23
2018-12-16T03:07:06.117Z,22.60
2018-12-16T03:09:33.753Z,20.27
2018-12-16T03:12:01.313Z,21.70
2018-12-16T03:14:28.937Z,18.23
2018-12-16T03:16:56.601Z,19.17
2018-12-16T03:19:24.155Z,18.53
2018-12-16T03:21:51.698Z,16.90
2018-12-16T03:24:19.289Z,17.17
2018-12-16T03:26:46.854Z,18.00
2018-12-16T03:29:14.501Z,20.07
2018-12-16T03:31:42.105Z,17.70
2018-12-16T03:34:09.801Z,18.10
2018-12-16T03:36:37.375Z,17.50
2018-12-16T03:39:06.369Z,17.60
2018-12-16T03:41:33.941Z,18.33
2018-12-16T03:44:01.535Z,17.73
2018-12-16T03:46:29.084Z,17.27
2018-12-16T03:48:56.674Z,16.20
2018-12-16T03:51:24.243Z,16.37
2018-12-16T03:53:51.858Z,17.40
2018-12-16T03:56:19.397Z,16.60
2018-12-16T03:58:58.859Z,16.97
2018-12-16T04:01:26.416Z,17.53
2018-12-16T04:03:54.056Z,17.93
2018-12-16T04:06:21.609Z,19.00
2018-12-16T04:08:49.196Z,18.00
2018-12-16T04:11:16.775Z,19.17
2018-12-16T04:13:44.608Z,18.97
2018-12-16T04:16:12.162Z,20.67
2018-12-16T04:18:39.810Z,19.20
2018-12-16T04:21:07.363Z,20.60
2018-12-16T04:23:35.200Z,19.33
2018-12-16T04:26:02.745Z,21.27
2018-12-16T04:28:30.440Z,21.97
2018-12-16T04:30:58.035Z,23.40
2018-12-16T04:33:25.665Z,23.20
2018-12-16T04:35:53.242Z,23.63
2018-12-16T04:38:21.144Z,24.63
2018-12-16T04:40:48.669Z,24.20
2018-12-16T04:43:16.239Z,25.57
2018-12-16T04:45:43.822Z,22.97
2018-12-16T04:48:11.427Z,23.87
2018-12-16T04:50:39.020Z,22.83
2018-12-16T04:53:06.584Z,24.03
2018-12-16T04:55:34.191Z,22.97
2018-12-16T04:58:01.786Z,24.47
2018-12-16T05:00:29.464Z,25.20
2018-12-16T05:02:56.988Z,24.47
2018-12-16T05:05:24.577Z,24.00
2018-12-16T05:07:52.322Z,24.93
2018-12-16T05:10:25.977Z,24.47
2018-12-16T05:12:53.596Z,25.13
2018-12-16T05:15:21.175Z,24.43
2018-12-16T05:17:48.764Z,24.37
2018-12-16T05:20:16.366Z,26.63
2018-12-16T05:22:43.952Z,25.17
2018-12-16T05:25:11.524Z,24.70
2018-12-16T05:27:39.071Z,24.50
2018-12-16T05:30:09.384Z,26.23
2018-12-16T05:32:37.632Z,26.40
2018-12-16T05:35:06.532Z,25.47
2018-12-16T05:37:34.217Z,27.63
2018-12-16T05:40:01.841Z,26.33
2018-12-16T05:42:29.410Z,26.30
2018-12-16T05:44:56.986Z,25.73
2018-12-16T05:47:24.539Z,27.87
2018-12-16T05:49:53.607Z,26.10
2018-12-16T05:52:21.175Z,27.03
2018-12-16T05:54:48.788Z,26.30
2018-12-16T05:57:16.698Z,25.90
2018-12-16T05:59:44.582Z,26.90
2018-12-16T06:02:12.129Z,26.17
2018-12-16T06:04:39.739Z,25.40
2018-12-16T06:07:07.283Z,26.73
2018-12-16T06:09:35.216Z,26.60
2018-12-16T06:12:02.762Z,26.30
2018-12-16T06:14:30.316Z,27.53
2018-12-16T06:16:58.642Z,25.93
2018-12-16T06:19:26.542Z,27.27
2018-12-16T06:21:54.129Z,25.97
2018-12-16T06:24:21.820Z,28.77
2018-12-16T06:26:50.406Z,26.60
2018-12-16T06:29:18.070Z,26.37
2018-12-16T06:31:45.932Z,27.80
2018-12-16T06:34:13.574Z,26.40
2018-12-16T06:36:41.492Z,26.70
2018-12-16T06:39:09.439Z,25.60
2018-12-16T06:41:37.016Z,24.97
2018-12-16T06:44:05.067Z,26.30
2018-12-16T06:46:32.670Z,24.90
2018-12-16T06:49:00.251Z,26.53
2018-12-16T06:51:28.000Z,26.70
2018-12-16T06:54:02.214Z,25.70
2018-12-16T06:56:25.867Z,26.13
2018-12-16T06:58:54.517Z,26.47
2018-12-16T07:01:22.356Z,26.53
2018-12-16T07:03:49.944Z,26.50
2018-12-16T07:06:17.493Z,26.10
2018-12-16T07:08:45.441Z,26.63
2018-12-16T07:11:13.967Z,27.10
2018-12-16T07:13:41.650Z,26.17
2018-12-16T07:16:09.233Z,24.93
2018-12-16T07:18:36.889Z,24.20
2018-12-16T07:21:04.574Z,23.83
2018-12-16T07:23:32.162Z,22.87
2018-12-16T07:26:00.215Z,25.83
2018-12-16T07:28:27.812Z,23.60
2018-12-16T07:30:55.383Z,24.10
2018-12-16T07:33:23.012Z,23.40
2018-12-16T07:35:50.997Z,24.67
2018-12-16T07:38:18.648Z,22.63
2018-12-16T07:40:46.225Z,21.07
2018-12-16T07:43:13.772Z,21.90
2018-12-16T07:45:41.398Z,22.23
2018-12-16T07:48:08.987Z,22.20
2018-12-16T07:50:36.985Z,22.53
2018-12-16T07:53:04.892Z,21.13
2018-12-16T07:55:32.551Z,20.20
2018-12-16T07:58:00.092Z,19.77
2018-12-16T08:00:27.954Z,20.60
2018-12-16T08:02:55.589Z,19.97
2018-12-16T08:05:23.278Z,19.50
2018-12-16T08:07:50.878Z,19.10
2018-12-16T08:10:18.514Z,20.50
2018-12-16T08:12:46.166Z,19.00
2018-12-16T08:15:13.737Z,19.03
2018-12-16T08:17:41.329Z,20.57
2018-12-16T08:20:08.921Z,19.70
2018-12-16T08:22:36.558Z,20.10
2018-12-16T08:25:04.850Z,19.07
2018-12-16T08:27:32.523Z,20.30
2018-12-16T08:30:00.121Z,20.50
2018-12-16T08:32:27.728Z,19.13
2018-12-16T08:34:55.392Z,20.67
2018-12-16T08:37:23.306Z,18.80
2018-12-16T08:39:50.849Z,20.87
2018-12-16T08:42:18.441Z,19.43
2018-12-16T08:44:46.409Z,17.37
2018-12-16T08:47:14.087Z,19.83
2018-12-16T08:49:41.745Z,21.77
2018-12-16T08:52:09.330Z,19.57
2018-12-16T08:54:36.991Z,19.13
2018-12-16T08:57:04.590Z,19.10
2018-12-16T08:59:32.207Z,18.03
2018-12-16T09:01:59.789Z,18.00
2018-12-16T09:04:27.350Z,18.80
2018-12-16T09:06:55.368Z,19.77
2018-12-16T09:09:23.371Z,19.47
2018-12-16T09:11:50.919Z,19.97
2018-12-16T09:14:18.537Z,20.13
2018-12-16T09:16:46.060Z,20.53
2018-12-16T09:19:13.620Z,19.37
2018-12-16T09:21:41.254Z,17.77
2018-12-16T09:24:08.939Z,18.90
2018-12-16T09:26:36.517Z,17.90
2018-12-16T09:29:04.224Z,19.83
2018-12-16T09:31:31.760Z,18.37
2018-12-16T09:33:59.356Z,18.30
2018-12-16T09:36:27.032Z,17.83
2018-12-16T09:38:54.682Z,18.53
2018-12-16T09:41:22.282Z,18.20
2018-12-16T09:43:49.892Z,18.60
2018-12-16T09:46:17.577Z,20.00
2018-12-16T09:48:45.289Z,19.70
2018-12-16T09:51:12.839Z,18.30
2018-12-16T09:53:40.401Z,20.83
2018-12-16T09:56:07.965Z,20.57
2018-12-16T09:58:35.892Z,19.40
2018-12-16T10:01:03.950Z,19.80
2018-12-16T10:03:31.594Z,19.83
2018-12-16T10:05:59.276Z,20.17
2018-12-16T10:08:26.873Z,18.47
2018-12-16T10:10:54.473Z,18.83
2018-12-16T10:13:22.105Z,19.67
2018-12-16T10:15:49.797Z,18.00
2018-12-16T10:18:17.615Z,17.37
2018-12-16T10:20:45.166Z,17.27
2018-12-16T10:23:12.994Z,18.10
2018-12-16T10:25:40.612Z,18.40
2018-12-16T10:28:08.281Z,18.43
2018-12-16T10:30:35.881Z,17.10
2018-12-16T10:33:03.532Z,17.43
2018-12-16T10:35:31.437Z,17.67
2018-12-16T10:37:59.091Z,17.73
2018-12-16T10:40:26.699Z,18.03
2018-12-16T10:42:55.009Z,22.17
2018-12-16T10:45:22.642Z,21.07
2018-12-16T10:47:50.271Z,24.93
2018-12-16T10:50:17.938Z,17.67
2018-12-16T10:52:45.557Z,18.47
2018-12-16T10:55:13.316Z,19.40
2018-12-16T10:57:41.229Z,18.27
2018-12-16T11:00:15.345Z,18.50
2018-12-16T11:02:42.939Z,18.63
2018-12-16T11:05:10.708Z,18.90
2018-12-16T11:07:38.283Z,18.43
2018-12-16T11:10:05.889Z,16.83
2018-12-16T11:12:33.967Z,18.53
2018-12-16T11:15:01.639Z,18.33
2018-12-16T11:17:29.289Z,16.73
2018-12-16T11:19:56.908Z,17.47
2018-12-16T11:22:24.771Z,19.20
2018-12-16T11:24:52.358Z,19.60
2018-12-16T11:27:19.976Z,18.10
2018-12-16T11:29:47.545Z,20.73
2018-12-16T11:32:15.477Z,18.60
2018-12-16T11:34:43.060Z,17.73
2018-12-16T11:37:10.639Z,18.43
2018-12-16T11:39:38.280Z,18.27
2018-12-16T11:42:05.842Z,18.90
2018-12-16T11:44:33.448Z,18.10
2018-12-16T11:47:01.015Z,19.83
2018-12-16T11:49:28.629Z,18.17
2018-12-16T11:51:57.012Z,20.03
2018-12-16T11:54:24.644Z,19.40
2018-12-16T11:56:52.249Z,18.10
2018-12-16T11:59:19.835Z,18.50
2018-12-16T12:01:47.432Z,18.17
2018-12-16T12:04:15.061Z,19.07
2018-12-16T12:06:43.561Z,17.43
2018-12-16T12:09:11.306Z,18.23
2018-12-16T12:11:38.938Z,18.80
2018-12-16T12:14:06.532Z,18.10
2018-12-16T12:16:34.210Z,22.00
2018-12-16T12:19:01.767Z,25.60
2018-12-16T12:21:29.346Z,18.90
2018-12-16T12:23:56.948Z,18.90
2018-12-16T12:26:24.547Z,18.07
2018-12-16T12:28:52.148Z,17.07
2018-12-16T12:31:19.973Z,17.70
2018-12-16T12:33:47.663Z,18.50
2018-12-16T12:36:15.270Z,17.43
2018-12-16T12:38:42.858Z,18.07
2018-12-16T12:41:10.535Z,18.80
2018-12-16T12:43:38.126Z,19.23
2018-12-16T12:46:05.718Z,19.10
2018-12-16T12:48:33.372Z,17.50
2018-12-16T12:51:01.052Z,17.77
2018-12-16T12:53:28.596Z,16.90
2018-12-16T12:55:56.179Z,17.13
2018-12-16T12:58:23.760Z,16.57
2018-12-16T13:00:51.405Z,17.33
2018-12-16T13:03:19.020Z,17.37
2018-12-16T13:05:46.648Z,19.37
2018-12-16T13:08:14.604Z,17.30
2018-12-16T13:10:42.206Z,17.27
2018-12-16T13:13:09.745Z,17.10
2018-12-16T13:15:38.516Z,16.47
2018-12-16T13:18:06.413Z,17.20
2018-12-16T13:20:34.192Z,18.47
2018-12-16T13:23:02.107Z,17.67
2018-12-16T13:25:41.620Z,17.30
2018-12-16T13:28:09.192Z,17.83
2018-12-16T13:30:36.820Z,18.47
2018-12-16T13:33:04.403Z,18.87
2018-12-16T13:35:32.201Z,19.50
2018-12-16T13:38:00.814Z,19.23
2018-12-16T13:40:28.683Z,18.37
2018-12-16T13:42:56.499Z,17.57
2018-12-16T13:45:24.154Z,17.80
2018-12-16T13:47:51.862Z,18.30
2018-12-16T13:50:19.784Z,18.17
2018-12-16T13:52:47.663Z,17.50
2018-12-16T13:55:15.421Z,18.30
2018-12-16T13:57:44.495Z,18.90
2018-12-16T14:00:12.477Z,19.10
2018-12-16T14:02:41.223Z,18.30
2018-12-16T14:05:08.867Z,18.07
2018-12-16T14:07:36.487Z,18.87
2018-12-16T14:10:05.996Z,18.30
2018-12-16T14:12:33.692Z,17.60
2018-12-16T14:15:01.384Z,16.70
2018-12-16T14:17:29.695Z,17.53
2018-12-16T14:19:58.268Z,19.90
2018-12-16T14:22:26.312Z,18.63
2018-12-16T14:24:54.019Z,17.97
2018-12-16T14:27:21.594Z,17.60
2018-12-16T14:29:49.419Z,18.97
2018-12-16T14:32:18.543Z,18.20
2018-12-16T14:34:46.203Z,17.67
2018-12-16T14:37:14.126Z,18.67
2018-12-16T14:39:42.347Z,20.10
2018-12-16T14:42:11.001Z,18.10
2018-12-16T14:44:38.718Z,18.33
2018-12-16T14:47:06.356Z,19.00
2018-12-16T14:49:33.923Z,18.17
2018-12-16T14:52:02.188Z,19.07
2018-12-16T14:54:30.064Z,17.90
2018-12-16T14:56:57.879Z,17.80
2018-12-16T14:59:25.482Z,18.30
2018-12-16T15:01:53.370Z,17.70
2018-12-16T15:04:20.985Z,18.07
2018-12-16T15:06:48.584Z,20.03
2018-12-16T15:09:16.183Z,17.93
2018-12-16T15:11:43.819Z,21.27
2018-12-16T15:14:11.449Z,18.23
2018-12-16T15:16:39.263Z,17.20
2018-12-16T15:19:06.871Z,18.30
2018-12-16T15:21:34.501Z,17.50
2018-12-16T15:24:02.127Z,17.80
2018-12-16T15:26:30.423Z,17.30
2018-12-16T15:28:58.001Z,18.40
2018-12-16T15:31:25.632Z,18.07
2018-12-16T15:33:53.231Z,17.80
2018-12-16T15:36:20.875Z,19.73
2018-12-16T15:38:48.452Z,18.77
2018-12-16T15:41:16.300Z,18.67
2018-12-16T15:43:43.922Z,18.17
2018-12-16T15:46:12.064Z,19.20
2018-12-16T15:48:39.652Z,18.10
2018-12-16T15:51:07.262Z,17.93
2018-12-16T15:53:34.898Z,20.13
2018-12-16T15:56:09.086Z,19.33
2018-12-16T15:58:32.493Z,20.10
2018-12-16T16:01:00.148Z,19.90
2018-12-16T16:03:27.804Z,20.47
2018-12-16T16:05:55.532Z,19.60
2018-12-16T16:08:23.288Z,18.63
2018-12-16T16:10:52.676Z,19.33
2018-12-16T16:13:20.608Z,19.30
2018-12-16T16:15:48.298Z,19.53
2018-12-16T16:18:15.994Z,19.40
2018-12-16T16:20:43.880Z,19.10
2018-12-16T16:23:11.733Z,20.87
2018-12-16T16:25:39.382Z,19.40
2018-12-16T16:28:06.993Z,18.87
2018-12-16T16:30:34.601Z,29.30
2018-12-16T16:33:02.635Z,21.97
2018-12-16T16:35:30.353Z,30.00
2018-12-16T16:38:00.790Z,20.10
2018-12-16T16:40:28.026Z,20.80
2018-12-16T16:42:55.703Z,18.20
2018-12-16T16:45:23.530Z,19.87
2018-12-16T16:47:51.798Z,19.77
2018-12-16T16:50:19.467Z,19.80
2018-12-16T16:52:47.099Z,20.10
2018-12-16T16:55:14.760Z,19.10
2018-12-16T16:57:42.490Z,20.10
2018-12-16T17:00:10.399Z,18.67
2018-12-16T17:02:38.254Z,18.50
2018-12-16T17:05:06.568Z,20.00
2018-12-16T17:07:34.178Z,20.07
2018-12-16T17:10:01.859Z,19.73
2018-12-16T17:12:29.533Z,19.33
2018-12-16T17:14:57.333Z,19.70
2018-12-16T17:17:25.156Z,19.43
2018-12-16T17:19:52.851Z,19.20
2018-12-16T17:22:20.590Z,20.90
2018-12-16T17:24:48.187Z,18.90
2018-12-16T17:27:15.936Z,19.60
2018-12-16T17:29:43.885Z,20.60
2018-12-16T17:32:11.873Z,18.70
2018-12-16T17:34:39.659Z,19.17
2018-12-16T17:37:07.457Z,19.20
2018-12-16T17:39:35.132Z,20.33
2018-12-16T17:42:02.902Z,19.30
2018-12-16T17:44:30.565Z,20.83
2018-12-16T17:46:58.453Z,22.80
2018-12-16T17:49:26.345Z,21.33
2018-12-16T17:51:54.038Z,26.10
2018-12-16T17:54:21.698Z,20.20
2018-12-16T17:56:49.262Z,21.20
2018-12-16T17:59:18.091Z,19.77
2018-12-16T18:01:45.979Z,18.70
2018-12-16T18:04:13.841Z,20.97
2018-12-16T18:06:41.479Z,20.30
2018-12-16T18:09:09.300Z,20.47
2018-12-16T18:11:36.898Z,20.27
2018-12-16T18:14:04.544Z,20.37
2018-12-16T18:16:32.195Z,20.13
2018-12-16T18:18:59.760Z,19.87
2018-12-16T18:21:27.384Z,19.80
2018-12-16T18:23:55.079Z,21.20
2018-12-16T18:26:22.710Z,21.30
2018-12-16T18:28:50.269Z,20.77
2018-12-16T18:31:17.842Z,20.40
2018-12-16T18:33:45.420Z,20.97
2018-12-16T18:36:12.987Z,21.20
2018-12-16T18:38:40.624Z,19.83
2018-12-16T18:41:08.202Z,20.67
2018-12-16T18:43:35.766Z,21.10
2018-12-16T18:46:03.378Z,23.97
2018-12-16T18:48:31.373Z,21.97
2018-12-16T18:50:59.004Z,21.43
2018-12-16T18:53:26.614Z,20.20
2018-12-16T18:55:54.196Z,20.97
2018-12-16T18:58:22.546Z,21.50
2018-12-16T19:00:50.147Z,21.13
2018-12-16T19:03:17.892Z,19.20
2018-12-16T19:05:45.584Z,19.87
2018-12-16T19:08:13.215Z,20.50
2018-12-16T19:10:40.798Z,20.43
2018-12-16T19:13:08.447Z,19.20
2018-12-16T19:15:36.123Z,20.17
2018-12-16T19:18:04.081Z,21.43
2018-12-16T19:20:31.641Z,20.03
2018-12-16T19:22:59.580Z,21.33
2018-12-16T19:25:27.169Z,22.17
2018-12-16T19:27:54.809Z,19.80
2018-12-16T19:30:22.367Z,20.60
2018-12-16T19:32:49.969Z,19.07
2018-12-16T19:35:17.609Z,19.97
2018-12-16T19:37:45.205Z,19.53
2018-12-16T19:40:12.917Z,19.07
2018-12-16T19:42:40.514Z,21.17
2018-12-16T19:45:08.245Z,21.63
2018-12-16T19:47:35.865Z,21.67
2018-12-16T19:50:05.614Z,20.53
2018-12-16T19:52:33.401Z,20.60
2018-12-16T19:55:01.411Z,20.60
2018-12-16T19:57:29.192Z,21.20
2018-12-16T19:59:57.044Z,19.40
2018-12-16T20:02:24.675Z,20.40
2018-12-16T20:05:09.209Z,21.70
2018-12-16T20:07:36.894Z,21.13
2018-12-16T20:10:05.712Z,21.23
2018-12-16T20:12:33.374Z,19.83
2018-12-16T20:15:01.088Z,21.63
2018-12-16T20:17:28.776Z,22.10
2018-12-16T20:19:56.737Z,21.80
2018-12-16T20:22:24.389Z,20.87
2018-12-16T20:24:52.012Z,20.90
2018-12-16T20:27:19.777Z,22.23
2018-12-16T20:29:47.439Z,21.70
2018-12-16T20:32:15.204Z,21.93
2018-12-16T20:34:42.840Z,22.43
2018-12-16T20:37:10.579Z,22.60
2018-12-16T20:39:38.285Z,21.60
2018-12-16T20:42:05.900Z,22.40
2018-12-16T20:44:33.904Z,21.33
2018-12-16T20:47:01.783Z,22.57
2018-12-16T20:49:29.469Z,22.60
2018-12-16T20:51:57.276Z,23.03
2018-12-16T20:54:24.955Z,21.73
2018-12-16T20:56:52.584Z,25.30
2018-12-16T20:59:20.269Z,23.77
2018-12-16T21:01:47.969Z,25.50
2018-12-16T21:04:15.639Z,24.27
2018-12-16T21:06:43.293Z,23.70
2018-12-16T21:09:11.228Z,23.87
2018-12-16T21:11:44.462Z,26.37
2018-12-16T21:14:17.685Z,24.07
2018-12-16T21:16:50.812Z,25.70
2018-12-16T21:19:18.642Z,24.80
2018-12-16T21:21:46.284Z,23.83
2018-12-16T21:24:14.158Z,24.73
2018-12-16T21:26:42.101Z,24.07
2018-12-16T21:29:09.934Z,23.93
2018-12-16T21:31:37.519Z,25.70
2018-12-16T21:34:05.435Z,24.93
2018-12-16T21:36:33.041Z,25.40
2018-12-16T21:39:00.616Z,25.80
2018-12-16T21:41:28.211Z,26.00
2018-12-16T21:43:55.886Z,24.00
2018-12-16T21:46:23.519Z,25.70
2018-12-16T21:48:51.295Z,25.43
2018-12-16T21:51:19.424Z,25.57
2018-12-16T21:53:47.115Z,24.60
2018-12-16T21:56:14.739Z,24.73
2018-12-16T21:58:42.370Z,24.37
2018-12-16T22:01:10.027Z,26.10
2018-12-16T22:06:43.399Z,24.43
2018-12-16T22:09:11.889Z,27.00
2018-12-16T22:11:39.673Z,24.47
2018-12-16T22:14:07.324Z,25.57
2018-12-16T22:16:34.987Z,24.97
2018-12-16T22:19:02.945Z,25.07
2018-12-16T22:21:30.544Z,25.67
2018-12-16T22:23:58.173Z,24.97
2018-12-16T22:26:25.790Z,26.37
2018-12-16T22:28:53.738Z,25.93
2018-12-16T22:31:21.356Z,25.80
2018-12-16T22:36:35.398Z,26.53
2018-12-16T22:39:04.585Z,24.93
2018-12-16T22:41:32.488Z,29.33
2018-12-16T22:44:00.089Z,24.70
2018-12-16T22:46:28.017Z,24.93
2018-12-16T22:48:55.634Z,25.17
2018-12-16T22:51:23.233Z,24.47
2018-12-16T22:53:50.800Z,26.10
2018-12-16T22:56:18.390Z,26.23
2018-12-16T22:58:46.046Z,24.87
2018-12-16T23:01:16.690Z,26.13
2018-12-16T23:03:44.257Z,25.97
2018-12-16T23:06:11.825Z,25.10
2018-12-16T23:08:39.551Z,25.93
2018-12-16T23:11:07.104Z,25.40
2018-12-16T23:13:34.762Z,25.90
2018-12-16T23:16:02.295Z,25.73
2018-12-16T23:18:29.890Z,26.10
2018-12-16T23:20:57.516Z,26.20
2018-12-16T23:23:25.415Z,26.93
2018-12-16T23:25:53.006Z,26.40
2018-12-16T23:28:20.680Z,26.43
2018-12-16T23:30:48.274Z,26.30
2018-12-16T23:33:15.857Z,26.50
2018-12-16T23:35:43.480Z,25.53
2018-12-16T23:38:11.061Z,28.93
2018-12-16T23:40:38.836Z,24.60
2018-12-16T23:43:06.440Z,26.23
2018-12-16T23:45:34.065Z,26.97
2018-12-16T23:48:01.705Z,25.53
2018-12-16T23:50:29.290Z,26.40
2018-12-16T23:52:57.173Z,25.03
2018-12-16T23:55:24.778Z,25.87
2018-12-16T23:57:52.372Z,25.57
